sensor_id;sensor_type;location;lat;lon;timestamp;temperature;humidity
28532;DHT22;15738;44.860;10.066;2023-03-03T00:00:58;8.30;99.90
28532;DHT22;15738;44.860;10.066;2023-03-03T00:03:43;8.30;99.90
28532;DHT22;15738;44.860;10.066;2023-03-03T00:06:29;8.30;99.90
28532;DHT22;15738;44.860;10.066;2023-03-03T00:09:15;8.20;99.90
28532;DHT22;15738;44.860;10.066;2023-03-03T00:12:00;8.20;99.90
28532;DHT22;15738;44.860;10.066;2023-03-03T00:14:46;8.10;99.90
28532;DHT22;15738;44.860;10.066;2023-03-03T00:17:32;8.10;99.90
28532;DHT22;15738;44.860;10.066;2023-03-03T00:20:24;8.10;99.90
28532;DHT22;15738;44.860;10.066;2023-03-03T00:26:07;8.00;99.90
28532;DHT22;15738;44.860;10.066;2023-03-03T00:28:59;7.90;99.90
28532;DHT22;15738;44.860;10.066;2023-03-03T00:31:46;7.90;99.90
28532;DHT22;15738;44.860;10.066;2023-03-03T00:34:31;7.80;99.90
28532;DHT22;15738;44.860;10.066;2023-03-03T00:37:33;7.80;99.90
28532;DHT22;15738;44.860;10.066;2023-03-03T00:40:37;7.70;99.90
28532;DHT22;15738;44.860;10.066;2023-03-03T00:43:24;7.70;99.90
28532;DHT22;15738;44.860;10.066;2023-03-03T00:46:14;7.60;99.90
28532;DHT22;15738;44.860;10.066;2023-03-03T00:49:01;7.50;99.90
28532;DHT22;15738;44.860;10.066;2023-03-03T00:51:52;7.60;99.90
28532;DHT22;15738;44.860;10.066;2023-03-03T00:54:38;7.50;99.90
28532;DHT22;15738;44.860;10.066;2023-03-03T00:57:24;7.50;99.90
28532;DHT22;15738;44.860;10.066;2023-03-03T01:00:10;7.50;99.90
28532;DHT22;15738;44.860;10.066;2023-03-03T01:02:59;7.50;99.90
28532;DHT22;15738;44.860;10.066;2023-03-03T01:05:47;7.50;99.90
28532;DHT22;15738;44.860;10.066;2023-03-03T01:08:33;7.50;99.90
28532;DHT22;15738;44.860;10.066;2023-03-03T01:11:19;7.50;99.90
28532;DHT22;15738;44.860;10.066;2023-03-03T01:14:06;7.40;99.90
28532;DHT22;15738;44.860;10.066;2023-03-03T01:16:52;7.40;99.90
28532;DHT22;15738;44.860;10.066;2023-03-03T01:19:37;7.40;99.90
28532;DHT22;15738;44.860;10.066;2023-03-03T01:22:23;7.40;99.90
28532;DHT22;15738;44.860;10.066;2023-03-03T01:25:08;7.40;99.90
28532;DHT22;15738;44.860;10.066;2023-03-03T01:27:55;7.40;99.90
28532;DHT22;15738;44.860;10.066;2023-03-03T01:30:41;7.40;99.90
28532;DHT22;15738;44.860;10.066;2023-03-03T01:33:26;7.30;99.90
28532;DHT22;15738;44.860;10.066;2023-03-03T01:36:12;7.30;99.90
28532;DHT22;15738;44.860;10.066;2023-03-03T01:38:58;7.30;99.90
28532;DHT22;15738;44.860;10.066;2023-03-03T01:41:43;7.20;99.90
28532;DHT22;15738;44.860;10.066;2023-03-03T01:44:29;7.20;99.90
28532;DHT22;15738;44.860;10.066;2023-03-03T01:47:16;7.20;99.90
28532;DHT22;15738;44.860;10.066;2023-03-03T01:50:03;7.20;99.90
28532;DHT22;15738;44.860;10.066;2023-03-03T01:52:50;7.20;99.90
28532;DHT22;15738;44.860;10.066;2023-03-03T01:55:36;7.20;99.90
28532;DHT22;15738;44.860;10.066;2023-03-03T01:58:27;7.10;99.90
28532;DHT22;15738;44.860;10.066;2023-03-03T02:01:15;7.10;99.90
28532;DHT22;15738;44.860;10.066;2023-03-03T02:04:01;7.10;99.90
28532;DHT22;15738;44.860;10.066;2023-03-03T02:06:49;7.00;99.90
28532;DHT22;15738;44.860;10.066;2023-03-03T02:12:32;7.10;99.90
28532;DHT22;15738;44.860;10.066;2023-03-03T02:18:05;7.00;99.90
28532;DHT22;15738;44.860;10.066;2023-03-03T02:21:05;7.00;99.90
28532;DHT22;15738;44.860;10.066;2023-03-03T02:23:52;6.90;99.90
28532;DHT22;15738;44.860;10.066;2023-03-03T02:26:41;6.90;99.90
28532;DHT22;15738;44.860;10.066;2023-03-03T02:29:28;6.90;99.90
28532;DHT22;15738;44.860;10.066;2023-03-03T02:32:14;6.80;99.90
28532;DHT22;15738;44.860;10.066;2023-03-03T02:35:00;6.70;99.90
28532;DHT22;15738;44.860;10.066;2023-03-03T02:37:46;6.70;99.90
28532;DHT22;15738;44.860;10.066;2023-03-03T02:40:32;6.60;99.90
28532;DHT22;15738;44.860;10.066;2023-03-03T02:43:18;6.60;99.90
28532;DHT22;15738;44.860;10.066;2023-03-03T02:46:05;6.60;99.90
28532;DHT22;15738;44.860;10.066;2023-03-03T02:48:51;6.60;99.90
28532;DHT22;15738;44.860;10.066;2023-03-03T02:51:36;6.60;99.90
28532;DHT22;15738;44.860;10.066;2023-03-03T02:54:23;6.50;99.90
28532;DHT22;15738;44.860;10.066;2023-03-03T02:57:09;6.50;99.90
28532;DHT22;15738;44.860;10.066;2023-03-03T02:59:54;6.50;99.90
28532;DHT22;15738;44.860;10.066;2023-03-03T03:02:40;6.50;99.90
28532;DHT22;15738;44.860;10.066;2023-03-03T03:05:26;6.50;99.90
28532;DHT22;15738;44.860;10.066;2023-03-03T03:08:11;6.40;99.90
28532;DHT22;15738;44.860;10.066;2023-03-03T03:10:57;6.40;99.90
28532;DHT22;15738;44.860;10.066;2023-03-03T03:13:44;6.40;99.90
28532;DHT22;15738;44.860;10.066;2023-03-03T03:16:31;6.40;99.90
28532;DHT22;15738;44.860;10.066;2023-03-03T03:19:16;6.50;99.90
28532;DHT22;15738;44.860;10.066;2023-03-03T03:22:02;6.40;99.90
28532;DHT22;15738;44.860;10.066;2023-03-03T03:24:51;6.40;99.90
28532;DHT22;15738;44.860;10.066;2023-03-03T03:27:37;6.40;99.90
28532;DHT22;15738;44.860;10.066;2023-03-03T03:30:23;6.40;99.90
28532;DHT22;15738;44.860;10.066;2023-03-03T03:33:09;6.40;99.90
28532;DHT22;15738;44.860;10.066;2023-03-03T03:35:56;6.40;99.90
28532;DHT22;15738;44.860;10.066;2023-03-03T03:38:42;6.40;99.90
28532;DHT22;15738;44.860;10.066;2023-03-03T03:41:29;6.40;99.90
28532;DHT22;15738;44.860;10.066;2023-03-03T03:44:15;6.30;99.90
28532;DHT22;15738;44.860;10.066;2023-03-03T03:47:00;6.30;99.90
28532;DHT22;15738;44.860;10.066;2023-03-03T03:49:46;6.30;99.90
28532;DHT22;15738;44.860;10.066;2023-03-03T03:52:31;6.20;99.90
28532;DHT22;15738;44.860;10.066;2023-03-03T03:55:17;6.20;99.90
28532;DHT22;15738;44.860;10.066;2023-03-03T03:58:03;6.10;99.90
28532;DHT22;15738;44.860;10.066;2023-03-03T04:00:49;6.10;99.90
28532;DHT22;15738;44.860;10.066;2023-03-03T04:03:36;6.10;99.90
28532;DHT22;15738;44.860;10.066;2023-03-03T04:06:25;6.10;99.90
28532;DHT22;15738;44.860;10.066;2023-03-03T04:09:11;6.10;99.90
28532;DHT22;15738;44.860;10.066;2023-03-03T04:11:57;6.10;99.90
28532;DHT22;15738;44.860;10.066;2023-03-03T04:14:43;6.00;99.90
28532;DHT22;15738;44.860;10.066;2023-03-03T04:17:30;6.00;99.90
28532;DHT22;15738;44.860;10.066;2023-03-03T04:20:15;6.10;99.90
28532;DHT22;15738;44.860;10.066;2023-03-03T04:23:04;6.10;99.90
28532;DHT22;15738;44.860;10.066;2023-03-03T04:25:51;6.10;99.90
28532;DHT22;15738;44.860;10.066;2023-03-03T04:28:38;6.10;99.90
28532;DHT22;15738;44.860;10.066;2023-03-03T04:31:24;6.10;99.90
28532;DHT22;15738;44.860;10.066;2023-03-03T04:37:28;6.00;99.90
28532;DHT22;15738;44.860;10.066;2023-03-03T04:40:16;6.00;99.90
28532;DHT22;15738;44.860;10.066;2023-03-03T04:43:05;6.10;99.90
28532;DHT22;15738;44.860;10.066;2023-03-03T04:45:57;6.10;99.90
28532;DHT22;15738;44.860;10.066;2023-03-03T04:48:47;6.00;99.90
28532;DHT22;15738;44.860;10.066;2023-03-03T04:51:34;6.10;99.90
28532;DHT22;15738;44.860;10.066;2023-03-03T04:54:20;6.00;99.90
28532;DHT22;15738;44.860;10.066;2023-03-03T04:57:05;6.00;99.90
28532;DHT22;15738;44.860;10.066;2023-03-03T04:59:54;6.00;99.90
28532;DHT22;15738;44.860;10.066;2023-03-03T05:02:40;5.90;99.90
28532;DHT22;15738;44.860;10.066;2023-03-03T05:05:27;6.00;99.90
28532;DHT22;15738;44.860;10.066;2023-03-03T05:08:12;5.90;99.90
28532;DHT22;15738;44.860;10.066;2023-03-03T05:10:58;5.90;99.90
28532;DHT22;15738;44.860;10.066;2023-03-03T05:13:46;5.90;99.90
28532;DHT22;15738;44.860;10.066;2023-03-03T05:16:32;5.90;99.90
28532;DHT22;15738;44.860;10.066;2023-03-03T05:19:18;5.80;99.90
28532;DHT22;15738;44.860;10.066;2023-03-03T05:22:03;5.80;99.90
28532;DHT22;15738;44.860;10.066;2023-03-03T05:24:49;5.90;99.90
28532;DHT22;15738;44.860;10.066;2023-03-03T05:27:34;5.90;99.90
28532;DHT22;15738;44.860;10.066;2023-03-03T05:30:20;5.80;99.90
28532;DHT22;15738;44.860;10.066;2023-03-03T05:33:06;5.80;99.90
28532;DHT22;15738;44.860;10.066;2023-03-03T05:35:52;5.80;99.90
28532;DHT22;15738;44.860;10.066;2023-03-03T05:38:37;5.80;99.90
28532;DHT22;15738;44.860;10.066;2023-03-03T05:41:23;5.80;99.90
28532;DHT22;15738;44.860;10.066;2023-03-03T05:47:22;5.80;99.90
28532;DHT22;15738;44.860;10.066;2023-03-03T05:50:10;5.80;99.90
28532;DHT22;15738;44.860;10.066;2023-03-03T05:52:58;5.80;99.90
28532;DHT22;15738;44.860;10.066;2023-03-03T06:02:20;5.80;99.90
28532;DHT22;15738;44.860;10.066;2023-03-03T06:05:19;5.80;99.90
28532;DHT22;15738;44.860;10.066;2023-03-03T06:08:06;5.80;99.90
28532;DHT22;15738;44.860;10.066;2023-03-03T06:14:05;5.80;99.90
28532;DHT22;15738;44.860;10.066;2023-03-03T06:16:50;5.90;99.90
28532;DHT22;15738;44.860;10.066;2023-03-03T06:23:30;6.00;99.90
28532;DHT22;15738;44.860;10.066;2023-03-03T06:29:31;6.20;99.90
28532;DHT22;15738;44.860;10.066;2023-03-03T06:32:16;6.20;99.90
28532;DHT22;15738;44.860;10.066;2023-03-03T06:35:02;6.30;99.90
28532;DHT22;15738;44.860;10.066;2023-03-03T06:37:48;6.80;99.90
28532;DHT22;15738;44.860;10.066;2023-03-03T06:40:35;7.40;99.90
28532;DHT22;15738;44.860;10.066;2023-03-03T06:43:20;8.10;99.90
28532;DHT22;15738;44.860;10.066;2023-03-03T06:46:06;8.70;99.90
28532;DHT22;15738;44.860;10.066;2023-03-03T06:48:54;9.30;99.90
28532;DHT22;15738;44.860;10.066;2023-03-03T06:51:39;9.90;99.90
28532;DHT22;15738;44.860;10.066;2023-03-03T06:57:48;10.80;99.90
28532;DHT22;15738;44.860;10.066;2023-03-03T07:00:34;11.40;99.90
28532;DHT22;15738;44.860;10.066;2023-03-03T07:03:26;11.80;99.90
28532;DHT22;15738;44.860;10.066;2023-03-03T07:06:19;12.20;99.90
28532;DHT22;15738;44.860;10.066;2023-03-03T07:09:14;12.50;99.90
28532;DHT22;15738;44.860;10.066;2023-03-03T07:12:09;12.60;99.90
28532;DHT22;15738;44.860;10.066;2023-03-03T07:14:59;12.30;99.90
28532;DHT22;15738;44.860;10.066;2023-03-03T07:17:51;11.80;99.90
28532;DHT22;15738;44.860;10.066;2023-03-03T07:20:38;11.70;99.90
28532;DHT22;15738;44.860;10.066;2023-03-03T07:23:25;11.40;99.90
28532;DHT22;15738;44.860;10.066;2023-03-03T07:26:12;11.30;99.90
28532;DHT22;15738;44.860;10.066;2023-03-03T07:31:45;11.30;99.90
28532;DHT22;15738;44.860;10.066;2023-03-03T07:35:06;11.20;99.90
28532;DHT22;15738;44.860;10.066;2023-03-03T07:37:43;11.20;99.90
28532;DHT22;15738;44.860;10.066;2023-03-03T07:43:25;11.50;99.90
28532;DHT22;15738;44.860;10.066;2023-03-03T07:46:20;11.50;99.90
28532;DHT22;15738;44.860;10.066;2023-03-03T07:49:24;11.50;99.90
28532;DHT22;15738;44.860;10.066;2023-03-03T07:52:25;11.70;99.90
28532;DHT22;15738;44.860;10.066;2023-03-03T07:55:19;11.90;99.90
28532;DHT22;15738;44.860;10.066;2023-03-03T08:03:46;12.10;99.90
28532;DHT22;15738;44.860;10.066;2023-03-03T08:12:14;12.50;99.90
28532;DHT22;15738;44.860;10.066;2023-03-03T08:15:16;12.60;99.90
28532;DHT22;15738;44.860;10.066;2023-03-03T08:18:07;12.80;99.90
28532;DHT22;15738;44.860;10.066;2023-03-03T08:23:50;13.00;99.90
28532;DHT22;15738;44.860;10.066;2023-03-03T08:26:36;13.10;99.90
28532;DHT22;15738;44.860;10.066;2023-03-03T08:29:22;13.30;99.90
28532;DHT22;15738;44.860;10.066;2023-03-03T08:32:07;13.40;99.90
28532;DHT22;15738;44.860;10.066;2023-03-03T08:34:53;13.50;99.90
28532;DHT22;15738;44.860;10.066;2023-03-03T08:37:38;13.60;99.90
28532;DHT22;15738;44.860;10.066;2023-03-03T08:40:24;13.70;99.90
28532;DHT22;15738;44.860;10.066;2023-03-03T08:43:10;13.80;99.90
28532;DHT22;15738;44.860;10.066;2023-03-03T08:45:59;13.90;99.90
28532;DHT22;15738;44.860;10.066;2023-03-03T08:48:45;14.10;99.90
28532;DHT22;15738;44.860;10.066;2023-03-03T08:51:31;14.10;99.90
28532;DHT22;15738;44.860;10.066;2023-03-03T08:54:18;14.20;99.90
28532;DHT22;15738;44.860;10.066;2023-03-03T08:57:04;14.30;99.90
28532;DHT22;15738;44.860;10.066;2023-03-03T08:59:49;14.40;99.90
28532;DHT22;15738;44.860;10.066;2023-03-03T09:02:35;14.50;99.90
28532;DHT22;15738;44.860;10.066;2023-03-03T09:05:21;14.60;99.90
28532;DHT22;15738;44.860;10.066;2023-03-03T09:08:07;14.70;99.90
28532;DHT22;15738;44.860;10.066;2023-03-03T09:10:52;14.70;99.90
28532;DHT22;15738;44.860;10.066;2023-03-03T09:13:38;14.90;99.90
28532;DHT22;15738;44.860;10.066;2023-03-03T09:16:23;14.80;99.90
28532;DHT22;15738;44.860;10.066;2023-03-03T09:22:20;14.60;99.90
28532;DHT22;15738;44.860;10.066;2023-03-03T09:25:13;14.60;99.90
28532;DHT22;15738;44.860;10.066;2023-03-03T09:28:04;14.70;99.90
28532;DHT22;15738;44.860;10.066;2023-03-03T09:30:58;14.70;99.90
28532;DHT22;15738;44.860;10.066;2023-03-03T09:33:46;14.70;99.90
28532;DHT22;15738;44.860;10.066;2023-03-03T09:36:35;14.70;99.90
28532;DHT22;15738;44.860;10.066;2023-03-03T09:39:23;14.60;99.90
28532;DHT22;15738;44.860;10.066;2023-03-03T09:53:41;14.20;99.90
28532;DHT22;15738;44.860;10.066;2023-03-03T09:56:32;14.00;99.90
28532;DHT22;15738;44.860;10.066;2023-03-03T09:59:32;13.80;99.90
28532;DHT22;15738;44.860;10.066;2023-03-03T10:17:19;14.10;99.90
28532;DHT22;15738;44.860;10.066;2023-03-03T10:23:22;14.20;99.90
28532;DHT22;15738;44.860;10.066;2023-03-03T10:32:42;14.00;99.90
28532;DHT22;15738;44.860;10.066;2023-03-03T10:42:43;14.50;99.90
28532;DHT22;15738;44.860;10.066;2023-03-03T10:51:16;14.40;99.90
28532;DHT22;15738;44.860;10.066;2023-03-03T11:00:25;14.00;99.90
28532;DHT22;15738;44.860;10.066;2023-03-03T11:03:29;14.20;99.90
28532;DHT22;15738;44.860;10.066;2023-03-03T11:06:28;14.10;99.90
28532;DHT22;15738;44.860;10.066;2023-03-03T11:12:15;14.20;99.90
28532;DHT22;15738;44.860;10.066;2023-03-03T11:18:14;14.30;99.90
28532;DHT22;15738;44.860;10.066;2023-03-03T11:35:20;14.40;99.90
28532;DHT22;15738;44.860;10.066;2023-03-03T11:41:00;14.40;99.90
28532;DHT22;15738;44.860;10.066;2023-03-03T11:43:50;14.70;99.90
28532;DHT22;15738;44.860;10.066;2023-03-03T11:46:39;14.90;99.90
28532;DHT22;15738;44.860;10.066;2023-03-03T11:55:10;14.90;99.90
28532;DHT22;15738;44.860;10.066;2023-03-03T12:00:50;14.70;99.90
28532;DHT22;15738;44.860;10.066;2023-03-03T12:03:40;14.80;99.90
28532;DHT22;15738;44.860;10.066;2023-03-03T12:06:37;14.70;99.90
28532;DHT22;15738;44.860;10.066;2023-03-03T12:09:28;14.60;99.90
28532;DHT22;15738;44.860;10.066;2023-03-03T12:12:18;14.60;99.90
28532;DHT22;15738;44.860;10.066;2023-03-03T12:15:08;14.70;99.90
28532;DHT22;15738;44.860;10.066;2023-03-03T12:21:10;14.70;99.90
28532;DHT22;15738;44.860;10.066;2023-03-03T12:26:59;14.50;99.90
28532;DHT22;15738;44.860;10.066;2023-03-03T12:35:38;14.50;99.90
28532;DHT22;15738;44.860;10.066;2023-03-03T13:00:52;14.50;99.90
28532;DHT22;15738;44.860;10.066;2023-03-03T13:03:42;14.50;99.90
28532;DHT22;15738;44.860;10.066;2023-03-03T13:12:43;14.80;99.90
28532;DHT22;15738;44.860;10.066;2023-03-03T13:15:30;14.80;99.90
28532;DHT22;15738;44.860;10.066;2023-03-03T13:24:27;15.00;99.90
28532;DHT22;15738;44.860;10.066;2023-03-03T13:27:15;15.10;99.90
28532;DHT22;15738;44.860;10.066;2023-03-03T13:32:56;15.00;99.90
28532;DHT22;15738;44.860;10.066;2023-03-03T13:35:44;14.90;99.90
28532;DHT22;15738;44.860;10.066;2023-03-03T13:38:32;14.90;99.90
28532;DHT22;15738;44.860;10.066;2023-03-03T13:41:27;14.60;99.90
28532;DHT22;15738;44.860;10.066;2023-03-03T13:44:22;14.60;99.90
28532;DHT22;15738;44.860;10.066;2023-03-03T13:52:47;14.40;99.90
28532;DHT22;15738;44.860;10.066;2023-03-03T13:58:44;14.50;99.90
28532;DHT22;15738;44.860;10.066;2023-03-03T14:04:44;14.70;99.90
28532;DHT22;15738;44.860;10.066;2023-03-03T14:10:48;14.70;99.90
28532;DHT22;15738;44.860;10.066;2023-03-03T14:13:52;14.90;99.90
28532;DHT22;15738;44.860;10.066;2023-03-03T14:16:50;14.90;99.90
28532;DHT22;15738;44.860;10.066;2023-03-03T14:19:40;14.90;99.90
28532;DHT22;15738;44.860;10.066;2023-03-03T14:22:31;15.00;99.90
28532;DHT22;15738;44.860;10.066;2023-03-03T14:25:20;15.00;99.90
28532;DHT22;15738;44.860;10.066;2023-03-03T14:28:09;14.90;99.90
28532;DHT22;15738;44.860;10.066;2023-03-03T14:30:58;14.80;99.90
28532;DHT22;15738;44.860;10.066;2023-03-03T14:34:08;14.80;99.90
28532;DHT22;15738;44.860;10.066;2023-03-03T14:45:38;15.00;99.90
28532;DHT22;15738;44.860;10.066;2023-03-03T14:48:25;14.70;99.90
28532;DHT22;15738;44.860;10.066;2023-03-03T14:51:26;14.60;99.90
28532;DHT22;15738;44.860;10.066;2023-03-03T14:54:15;14.60;99.90
28532;DHT22;15738;44.860;10.066;2023-03-03T14:57:11;14.50;99.90
28532;DHT22;15738;44.860;10.066;2023-03-03T15:05:58;14.40;99.90
28532;DHT22;15738;44.860;10.066;2023-03-03T15:08:43;14.40;99.90
28532;DHT22;15738;44.860;10.066;2023-03-03T15:11:31;14.50;99.90
28532;DHT22;15738;44.860;10.066;2023-03-03T15:14:18;14.60;99.90
28532;DHT22;15738;44.860;10.066;2023-03-03T15:17:16;14.60;99.90
28532;DHT22;15738;44.860;10.066;2023-03-03T15:29:27;14.40;99.90
28532;DHT22;15738;44.860;10.066;2023-03-03T15:32:26;14.40;99.90
28532;DHT22;15738;44.860;10.066;2023-03-03T15:41:15;14.10;99.90
28532;DHT22;15738;44.860;10.066;2023-03-03T15:44:13;14.20;99.90
28532;DHT22;15738;44.860;10.066;2023-03-03T16:01:36;14.00;99.90
28532;DHT22;15738;44.860;10.066;2023-03-03T16:04:25;13.90;99.90
28532;DHT22;15738;44.860;10.066;2023-03-03T16:10:18;14.00;99.90
28532;DHT22;15738;44.860;10.066;2023-03-03T16:16:19;14.00;99.90
28532;DHT22;15738;44.860;10.066;2023-03-03T16:19:12;14.00;99.90
28532;DHT22;15738;44.860;10.066;2023-03-03T16:28:04;13.70;99.90
28532;DHT22;15738;44.860;10.066;2023-03-03T16:31:00;13.60;99.90
28532;DHT22;15738;44.860;10.066;2023-03-03T16:33:56;13.50;99.90
28532;DHT22;15738;44.860;10.066;2023-03-03T16:36:53;13.50;99.90
28532;DHT22;15738;44.860;10.066;2023-03-03T16:42:27;13.50;99.90
28532;DHT22;15738;44.860;10.066;2023-03-03T16:54:02;13.40;99.90
28532;DHT22;15738;44.860;10.066;2023-03-03T16:57:11;13.40;99.90
28532;DHT22;15738;44.860;10.066;2023-03-03T17:00:08;13.30;99.90
28532;DHT22;15738;44.860;10.066;2023-03-03T17:02:57;13.20;99.90
28532;DHT22;15738;44.860;10.066;2023-03-03T17:17:07;13.10;99.90
28532;DHT22;15738;44.860;10.066;2023-03-03T17:38:09;12.70;99.90
28532;DHT22;15738;44.860;10.066;2023-03-03T17:44:09;12.60;99.90
28532;DHT22;15738;44.860;10.066;2023-03-03T17:47:00;12.50;99.90
28532;DHT22;15738;44.860;10.066;2023-03-03T17:58:51;12.10;99.90
28532;DHT22;15738;44.860;10.066;2023-03-03T18:07:41;11.80;99.90
28532;DHT22;15738;44.860;10.066;2023-03-03T18:22:50;11.40;99.90
28532;DHT22;15738;44.860;10.066;2023-03-03T18:28:44;11.30;99.90
28532;DHT22;15738;44.860;10.066;2023-03-03T18:31:30;11.30;99.90
28532;DHT22;15738;44.860;10.066;2023-03-03T18:37:10;11.10;99.90
28532;DHT22;15738;44.860;10.066;2023-03-03T18:40:18;11.10;99.90
28532;DHT22;15738;44.860;10.066;2023-03-03T18:49:06;10.80;99.90
28532;DHT22;15738;44.860;10.066;2023-03-03T18:52:12;10.80;99.90
28532;DHT22;15738;44.860;10.066;2023-03-03T18:58:36;10.60;99.90
28532;DHT22;15738;44.860;10.066;2023-03-03T19:09:56;10.30;99.90
28532;DHT22;15738;44.860;10.066;2023-03-03T19:21:18;10.10;99.90
28532;DHT22;15738;44.860;10.066;2023-03-03T19:30:32;10.00;99.90
28532;DHT22;15738;44.860;10.066;2023-03-03T19:33:25;10.00;99.90
28532;DHT22;15738;44.860;10.066;2023-03-03T19:36:32;10.00;99.90
28532;DHT22;15738;44.860;10.066;2023-03-03T19:51:20;9.80;99.90
28532;DHT22;15738;44.860;10.066;2023-03-03T19:56:55;9.70;99.90
28532;DHT22;15738;44.860;10.066;2023-03-03T19:59:46;9.70;99.90
28532;DHT22;15738;44.860;10.066;2023-03-03T20:02:40;9.70;99.90
28532;DHT22;15738;44.860;10.066;2023-03-03T20:05:33;9.70;99.90
28532;DHT22;15738;44.860;10.066;2023-03-03T20:08:24;9.70;99.90
28532;DHT22;15738;44.860;10.066;2023-03-03T20:23:18;9.70;99.90
28532;DHT22;15738;44.860;10.066;2023-03-03T20:34:45;9.80;99.90
28532;DHT22;15738;44.860;10.066;2023-03-03T20:40:24;9.80;99.90
28532;DHT22;15738;44.860;10.066;2023-03-03T20:49:51;9.80;99.90
28532;DHT22;15738;44.860;10.066;2023-03-03T20:52:41;9.80;99.90
28532;DHT22;15738;44.860;10.066;2023-03-03T21:01:19;9.80;99.90
28532;DHT22;15738;44.860;10.066;2023-03-03T21:07:12;9.80;99.90
28532;DHT22;15738;44.860;10.066;2023-03-03T21:12:57;9.80;99.90
28532;DHT22;15738;44.860;10.066;2023-03-03T21:15:42;9.80;99.90
28532;DHT22;15738;44.860;10.066;2023-03-03T21:18:38;9.80;99.90
28532;DHT22;15738;44.860;10.066;2023-03-03T21:21:24;9.70;99.90
28532;DHT22;15738;44.860;10.066;2023-03-03T21:24:11;9.60;99.90
28532;DHT22;15738;44.860;10.066;2023-03-03T21:26:59;9.60;99.90
28532;DHT22;15738;44.860;10.066;2023-03-03T21:29:46;9.60;99.90
28532;DHT22;15738;44.860;10.066;2023-03-03T21:32:46;9.50;99.90
28532;DHT22;15738;44.860;10.066;2023-03-03T21:35:33;9.50;99.90
28532;DHT22;15738;44.860;10.066;2023-03-03T21:38:38;9.40;99.90
28532;DHT22;15738;44.860;10.066;2023-03-03T21:41:24;9.40;99.90
28532;DHT22;15738;44.860;10.066;2023-03-03T21:47:34;9.40;99.90
28532;DHT22;15738;44.860;10.066;2023-03-03T21:50:20;9.30;99.90
28532;DHT22;15738;44.860;10.066;2023-03-03T21:53:05;9.30;99.90
28532;DHT22;15738;44.860;10.066;2023-03-03T21:55:52;9.30;99.90
28532;DHT22;15738;44.860;10.066;2023-03-03T21:58:37;9.30;99.90
28532;DHT22;15738;44.860;10.066;2023-03-03T22:01:23;9.20;99.90
28532;DHT22;15738;44.860;10.066;2023-03-03T22:04:09;9.20;99.90
28532;DHT22;15738;44.860;10.066;2023-03-03T22:06:54;9.10;99.90
28532;DHT22;15738;44.860;10.066;2023-03-03T22:09:40;9.10;99.90
28532;DHT22;15738;44.860;10.066;2023-03-03T22:12:26;9.00;99.90
28532;DHT22;15738;44.860;10.066;2023-03-03T22:15:11;9.00;99.90
28532;DHT22;15738;44.860;10.066;2023-03-03T22:17:57;9.00;99.90
28532;DHT22;15738;44.860;10.066;2023-03-03T22:20:44;9.00;99.90
28532;DHT22;15738;44.860;10.066;2023-03-03T22:23:30;9.00;99.90
28532;DHT22;15738;44.860;10.066;2023-03-03T22:26:16;8.90;99.90
28532;DHT22;15738;44.860;10.066;2023-03-03T22:29:02;8.90;99.90
28532;DHT22;15738;44.860;10.066;2023-03-03T22:31:48;8.90;99.90
28532;DHT22;15738;44.860;10.066;2023-03-03T22:34:33;8.80;99.90
28532;DHT22;15738;44.860;10.066;2023-03-03T22:37:19;8.80;99.90
28532;DHT22;15738;44.860;10.066;2023-03-03T22:40:05;8.70;99.90
28532;DHT22;15738;44.860;10.066;2023-03-03T22:42:51;8.70;99.90
28532;DHT22;15738;44.860;10.066;2023-03-03T22:45:36;8.70;99.90
28532;DHT22;15738;44.860;10.066;2023-03-03T22:48:22;8.70;99.90
28532;DHT22;15738;44.860;10.066;2023-03-03T22:51:08;8.70;99.90
28532;DHT22;15738;44.860;10.066;2023-03-03T22:53:54;8.60;99.90
28532;DHT22;15738;44.860;10.066;2023-03-03T22:56:39;8.60;99.90
28532;DHT22;15738;44.860;10.066;2023-03-03T22:59:25;8.60;99.90
28532;DHT22;15738;44.860;10.066;2023-03-03T23:02:11;8.50;99.90
28532;DHT22;15738;44.860;10.066;2023-03-03T23:04:57;8.50;99.90
28532;DHT22;15738;44.860;10.066;2023-03-03T23:07:45;8.50;99.90
28532;DHT22;15738;44.860;10.066;2023-03-03T23:10:31;8.50;99.90
28532;DHT22;15738;44.860;10.066;2023-03-03T23:13:17;8.50;99.90
28532;DHT22;15738;44.860;10.066;2023-03-03T23:16:03;8.40;99.90
28532;DHT22;15738;44.860;10.066;2023-03-03T23:18:48;8.40;99.90
28532;DHT22;15738;44.860;10.066;2023-03-03T23:21:34;8.40;99.90
28532;DHT22;15738;44.860;10.066;2023-03-03T23:24:20;8.40;99.90
28532;DHT22;15738;44.860;10.066;2023-03-03T23:27:05;8.40;99.90
28532;DHT22;15738;44.860;10.066;2023-03-03T23:29:51;8.40;99.90
28532;DHT22;15738;44.860;10.066;2023-03-03T23:32:39;8.40;99.90
28532;DHT22;15738;44.860;10.066;2023-03-03T23:35:24;8.40;99.90
28532;DHT22;15738;44.860;10.066;2023-03-03T23:38:10;8.30;99.90
28532;DHT22;15738;44.860;10.066;2023-03-03T23:40:59;8.20;99.90
28532;DHT22;15738;44.860;10.066;2023-03-03T23:43:44;8.10;99.90
28532;DHT22;15738;44.860;10.066;2023-03-03T23:46:30;8.10;99.90
28532;DHT22;15738;44.860;10.066;2023-03-03T23:49:16;8.10;99.90
28532;DHT22;15738;44.860;10.066;2023-03-03T23:52:02;8.00;99.90
28532;DHT22;15738;44.860;10.066;2023-03-03T23:54:48;8.00;99.90
28532;DHT22;15738;44.860;10.066;2023-03-03T23:57:33;7.90;99.90
